• Join FlightAware (Why Join?)
  • Login
  • US Flag 
01:51AM EST


 

Airport Tracker/Info


-or-


 

Live Flight TrackerFlight Track Log ✈ JBU56 ✈ 30-Sep-2013 ✈ KIAD - KBOS

Flight Track Log - Related Links

Times and Time Zones

All times are in EDT time to prevent confusion due to time zone crossing. See the JBU56 flight status page for this flight to view local times or setup timezone preferences in your user account.

Time Position Orientation Groundspeed Altitude Reporting Facility
EDT Latitude Longitude Course Direction KTS MPH feet Rate Location/Type
09:10AM 38.9667 -77.5167 76° East 173 199 2,100  Level Potomac TRACON
09:11AM 39.0000 -77.5833 303° West 226 260 3,800 2,340 Climbing Potomac TRACON
09:12AM 39.1786 -77.0626 74° East  Level Estimated
09:12AM 39.0500 -77.6000 345° North 281 323 6,400  Level Potomac TRACON
09:13AM 39.2362 -76.9629 90° East  Level Estimated
09:13AM 39.1000 -77.5000 57° Northeast 283 326 9,900  Level Potomac TRACON
09:14AM 39.2762 -76.8935 67° East  Level Estimated
09:14AM 39.1500 -77.4000 57° Northeast 333 383 10,000  Level Potomac TRACON
09:15AM 39.3161 -76.8240 76° East  Level Estimated
09:15AM 39.1317 -77.2292 98° East 330 380 11,500  Level Washington Center
09:16AM 39.0978 -77.1081 110° East 335 386 12,800 2,040 Climbing Washington Center
09:17AM 39.0972 -76.9797 90° East 345 397 15,600 2,400 Climbing Washington Center
09:18AM 39.1069 -76.8433 85° East 363 418 17,700 1,980 Climbing Washington Center
09:19AM 39.1167 -76.7072 85° East 373 429 19,700 1,860 Climbing Washington Center
09:20AM 39.1283 -76.5628 84° East 388 447 21,500 1,620 Climbing Washington Center
09:21AM 39.1378 -76.4131 85° East 394 453 23,000 720 Climbing Washington Center
09:22AM 39.1469 -76.2661 85° East 409 471 23,000  Level Washington Center
09:23AM 39.1622 -76.1164 82° East 414 476 23,000 300 Level Washington Center
09:24AM 39.1794 -75.9692 81° East 419 482 23,700 1,140 Climbing Washington Center
09:25AM 39.2258 -75.8328 66° East 413 475 25,300 1,440 Climbing Washington Center
09:26AM 39.3072 -75.7392 42° Northeast 411 473 26,600 1,260 Climbing Washington Center
09:27AM 39.4031 -75.6131 45° Northeast 421 484 27,900 1,440 Climbing Washington Center
09:29AM 39.5753 -75.3819 46° Northeast 456 525 31,000 1,020 Climbing New York Center
09:30AM 39.6631 -75.2636 46° Northeast 451 519 31,000  Level New York Center
09:31AM 39.7511 -75.1397 47° Northeast 459 528 31,000  Level New York Center
09:32AM 39.8392 -75.0153 47° Northeast 459 528 31,000  Level New York Center
09:33AM 39.9247 -74.8961 47° Northeast 453 521 31,000  Level New York Center
09:34AM 40.0078 -74.7872 45° Northeast 453 521 31,000  Level New York Center
09:35AM 40.0889 -74.6642 49° Northeast 453 521 31,000  Level New York Center
09:36AM 40.1742 -74.5386 48° Northeast 453 521 31,000  Level New York Center
09:37AM 40.2619 -74.3994 50° Northeast 458 527 31,000  Level New York Center
09:38AM 40.3411 -74.2700 51° Northeast 458 527 31,000  Level New York Center
09:39AM 40.4219 -74.1406 51° Northeast 458 527 31,000 -300 Level New York Center
09:40AM 40.5047 -74.0108 50° Northeast 461 531 30,500 -900 Descending New York Center
09:41AM 40.5831 -73.8833 51° Northeast 455 524 29,200 -1,500 Descending New York Center
09:44AM 40.7669 -73.5953 50° Northeast 448 516 25,300 -1,560 Descending Boston Center
09:45AM 40.8536 -73.4544 51° Northeast 416 479 23,900 -960 Descending Boston Center
09:46AM 40.9325 -73.3733 38° Northeast 378 435 23,400 -900 Descending Boston Center
09:47AM 41.0314 -73.3297 18° North 361 415 22,100 -1,200 Descending Boston Center
09:48AM 41.1253 -73.2894 18° North 358 412 21,000 -600 Descending Boston Center
09:49AM 41.1814 -73.2211 42° Northeast 350 403 21,000  Level Boston Center
09:50AM 41.2258 -73.0775 68° East 350 403 21,000  Level Boston Center
09:51AM 41.2617 -72.9578 68° East 349 402 21,000  Level Boston Center
09:52AM 41.2997 -72.8386 67° East 349 402 21,000  Level Boston Center
09:53AM 41.3372 -72.7186 67° East 348 400 21,000  Level Boston Center
09:54AM 41.3744 -72.5989 67° East 349 402 21,000  Level Boston Center
09:55AM 41.4111 -72.4792 68° East 348 400 21,000  Level Boston Center
09:56AM 41.4561 -72.3367 67° East 348 400 21,000  Level Boston Center
09:57AM 41.4922 -72.2161 68° East 348 400 21,000  Level Boston Center
09:58AM 41.5128 -72.0933 77° East 348 400 21,000 -300 Level Boston Center
09:59AM 41.4539 -71.9903 127° Southeast 355 409 20,500 -1,140 Descending Boston Center
10:00AM 41.4694 -71.8664 80° East 347 399 18,700 -1,680 Descending Boston Center
10:01AM 41.5372 -71.7500 52° Northeast 326 375 16,700 -1,740 Descending Boston Center
10:02AM 41.5958 -71.6500 52° Northeast 319 367 14,800 -1,680 Descending Boston Center
10:03AM 41.6486 -71.5600 52° Northeast 312 359 13,300 -1,500 Descending Boston Center
10:05AM 41.6997 -71.4753 51° Northeast 298 343 11,700 -1,140 Descending Boston Center
10:06AM 41.7472 -71.3775 57° Northeast 292 336 11,000 -360 Descending Boston Center
10:07AM 41.7881 -71.2822 60° Northeast 295 339 11,000 -120 Level Boston Center
10:08AM 41.8700 -71.2447 19° North 296 341 10,800 -480 Descending Boston Center
10:09AM 41.9431 -71.2100 19° North 282 325 10,100 -1,020 Descending Boston Center
10:10AM 42.0039 -71.1797 20° North 237 273 8,700 -1,620 Descending Boston Center
10:11AM 42.0686 -71.1483 20° North 231 266 6,800 -1,740 Descending Boston Center
10:12AM 42.1286 -71.1200 19° North 229 264 5,200 -1,500 Descending Boston Center
10:13AM 42.1856 -71.0925 20° North 218 251 3,700 -1,320 Descending Boston Center
10:14AM 42.2425 -71.0658 19° North 200 230 2,500 -1,140 Descending Boston Center
10:15AM 42.2867 -71.0453 19° North 171 197 1,500 -840 Descending Boston Center
10:16AM 42.3217 -71.0278 20° North 151 174 800 -540 Descending Boston Center
10:17AM 42.3672 -71.0078 18° North 150 173 500 -300 Descending Boston Center